Time;durP1;ratioP1;P1;durP2;ratioP2;P2;SDS_P1;SDS_P2;PMS_P1;PMS_P2;Temp;Humidity;BMP_temperature;BMP_pressure;BME280_temperature;BME280_humidity;BME280_pressure;Samples;Min_cycle;Max_cycle;Signal;HPM_P1;HPM_P2
2023/09/06 00:01:24;;;;;;;1.73;1.58;;;23.30;99.90;;;;;;4996352;28;20479;-38
2023/09/06 00:03:49;;;;;;;2.28;1.95;;;23.30;99.90;;;;;;4993117;28;20022;-39
2023/09/06 00:06:16;;;;;;;1.50;1.40;;;23.20;99.90;;;;;;4977228;28;20077;-37
2023/09/06 00:08:42;;;;;;;1.70;1.60;;;23.20;99.90;;;;;;4990578;28;20538;-38
2023/09/06 00:11:08;;;;;;;1.95;1.60;;;23.10;99.90;;;;;;4996358;28;20431;-39
2023/09/06 00:13:35;;;;;;;2.17;1.90;;;23.00;99.90;;;;;;4995311;28;20042;-38
2023/09/06 00:16:02;;;;;;;2.38;1.80;;;23.00;99.90;;;;;;4996229;28;20030;-38
2023/09/06 00:18:27;;;;;;;3.90;2.10;;;22.90;99.90;;;;;;4995123;28;20034;-37
2023/09/06 00:20:53;;;;;;;2.38;1.75;;;22.80;99.90;;;;;;4996152;28;20412;-41
2023/09/06 00:23:20;;;;;;;2.70;1.63;;;22.80;99.90;;;;;;4995093;28;20475;-38
2023/09/06 00:25:47;;;;;;;2.35;1.73;;;22.70;99.90;;;;;;4996257;28;20080;-39
2023/09/06 00:28:15;;;;;;;2.88;2.17;;;22.70;99.90;;;;;;4977826;28;20037;-39
2023/09/06 00:30:44;;;;;;;1.88;1.60;;;22.60;99.90;;;;;;4995996;28;20073;-38
2023/09/06 00:33:10;;;;;;;2.78;1.88;;;22.50;99.90;;;;;;4977733;28;20041;-39
2023/09/06 00:35:38;;;;;;;3.97;1.90;;;22.50;99.90;;;;;;4994262;28;20039;-38
2023/09/06 00:38:05;;;;;;;2.85;1.95;;;22.40;99.90;;;;;;4980840;28;20030;-39
2023/09/06 00:40:31;;;;;;;3.92;2.65;;;22.30;99.90;;;;;;5015357;28;20055;-41
2023/09/06 00:43:00;;;;;;;6.68;1.90;;;22.30;99.90;;;;;;5004193;28;20029;-38
2023/09/06 00:45:51;;;;;;;2.75;2.13;;;22.30;99.90;;;;;;4995627;28;20034;-39
2023/09/06 00:48:21;;;;;;;1.75;1.50;;;22.30;99.90;;;;;;4995137;28;20050;-38
2023/09/06 00:50:53;;;;;;;5.72;2.40;;;22.30;99.90;;;;;;4993379;28;20030;-39
2023/09/06 00:53:20;;;;;;;2.05;1.85;;;22.20;99.90;;;;;;4991772;28;20475;-38
2023/09/06 00:55:48;;;;;;;2.65;2.30;;;22.10;99.90;;;;;;4995315;28;20072;-39
2023/09/06 00:58:15;;;;;;;3.95;2.10;;;22.10;99.90;;;;;;4995482;28;20041;-41
2023/09/06 01:00:51;;;;;;;3.80;2.35;;;22.00;99.90;;;;;;4994588;28;20109;-41
2023/09/06 01:03:17;;;;;;;1.65;1.55;;;22.00;99.90;;;;;;4995242;28;20046;-40
2023/09/06 01:06:03;;;;;;;7.25;2.05;;;21.90;99.90;;;;;;4994109;28;20650;-39
2023/09/06 01:08:39;;;;;;;3.05;1.90;;;21.90;99.90;;;;;;4977604;28;20478;-40
2023/09/06 01:11:20;;;;;;;2.25;1.92;;;21.80;99.90;;;;;;4976070;28;20027;-38
2023/09/06 01:13:52;;;;;;;2.38;2.17;;;21.80;99.90;;;;;;4975664;28;20046;-42
2023/09/06 01:16:38;;;;;;;3.45;2.10;;;21.80;99.90;;;;;;4975658;28;20491;-38
2023/09/06 01:19:05;;;;;;;4.30;2.53;;;21.80;99.90;;;;;;4979784;28;20033;-37
2023/09/06 01:21:51;;;;;;;2.10;1.88;;;21.80;99.90;;;;;;4995058;28;20117;-37
2023/09/06 01:24:18;;;;;;;2.25;1.95;;;21.70;99.90;;;;;;4954266;28;20038;-37
2023/09/06 01:26:44;;;;;;;3.60;2.30;;;21.70;99.90;;;;;;4993882;28;20145;-39
2023/09/06 01:29:10;;;;;;;3.55;2.17;;;21.70;99.90;;;;;;4982069;28;20574;-39
2023/09/06 01:31:36;;;;;;;5.07;2.88;;;21.60;99.90;;;;;;4994660;28;20506;-38
2023/09/06 01:34:02;;;;;;;4.47;2.58;;;21.60;99.90;;;;;;4992467;28;20027;-37
2023/09/06 01:36:28;;;;;;;2.42;2.13;;;21.60;99.90;;;;;;4994541;28;20487;-39
2023/09/06 01:38:54;;;;;;;5.90;3.63;;;21.50;99.90;;;;;;4993730;28;20391;-42
2023/09/06 01:41:20;;;;;;;3.00;2.40;;;21.50;99.90;;;;;;4993583;28;20023;-39
2023/09/06 01:43:45;;;;;;;2.88;2.53;;;21.50;99.90;;;;;;4993391;28;20022;-39
2023/09/06 01:46:11;;;;;;;2.85;2.40;;;21.50;99.90;;;;;;4993102;28;20085;-38
2023/09/06 01:48:39;;;;;;;6.57;2.85;;;21.40;99.90;;;;;;4994355;28;20056;-38
2023/09/06 01:51:08;;;;;;;4.70;2.67;;;21.40;99.90;;;;;;4993775;28;20050;-38
2023/09/06 01:53:33;;;;;;;6.18;3.00;;;21.40;99.90;;;;;;4994748;28;20026;-38
2023/09/06 01:56:00;;;;;;;2.47;2.13;;;21.30;99.90;;;;;;4994427;28;20125;-38
2023/09/06 01:58:25;;;;;;;3.92;2.95;;;21.30;99.90;;;;;;4992888;28;20031;-38
2023/09/06 02:00:53;;;;;;;3.85;2.40;;;21.30;99.90;;;;;;4994053;28;20113;-39
2023/09/06 02:03:18;;;;;;;2.53;2.25;;;21.20;99.90;;;;;;4994310;28;20033;-41
2023/09/06 02:05:44;;;;;;;4.95;3.15;;;21.20;99.90;;;;;;4994538;28;20023;-38
2023/09/06 02:08:11;;;;;;;5.93;2.85;;;21.20;99.90;;;;;;4992449;28;20135;-38
2023/09/06 02:10:36;;;;;;;2.33;2.13;;;21.20;99.90;;;;;;4993491;28;20033;-40
2023/09/06 02:13:02;;;;;;;6.07;3.00;;;21.20;99.90;;;;;;4992277;28;20026;-38
2023/09/06 02:15:30;;;;;;;2.40;2.22;;;21.20;99.90;;;;;;4994273;28;20486;-38
2023/09/06 02:17:56;;;;;;;5.18;3.08;;;21.10;99.90;;;;;;4992970;28;20074;-38
2023/09/06 02:20:22;;;;;;;3.20;2.75;;;21.10;99.90;;;;;;4994090;28;20194;-38
2023/09/06 02:22:56;;;;;;;5.38;2.70;;;21.10;99.90;;;;;;4993537;28;20128;-38
2023/09/06 02:25:24;;;;;;;6.85;2.80;;;21.00;99.90;;;;;;4993863;28;20034;-37
2023/09/06 02:27:51;;;;;;;7.38;3.13;;;21.00;99.90;;;;;;4992796;28;20045;-40
2023/09/06 02:30:17;;;;;;;4.20;3.05;;;21.00;99.90;;;;;;4993820;28;20054;-38
2023/09/06 02:32:43;;;;;;;6.53;3.67;;;21.00;99.90;;;;;;4991486;28;20107;-38
2023/09/06 02:35:08;;;;;;;3.10;2.72;;;21.00;99.90;;;;;;4992348;28;20559;-40
2023/09/06 02:37:35;;;;;;;4.53;3.25;;;20.90;99.90;;;;;;4992121;28;20558;-37
2023/09/06 02:40:02;;;;;;;4.43;3.10;;;20.90;99.90;;;;;;4992490;28;20386;-37
2023/09/06 02:42:28;;;;;;;6.85;3.90;;;21.00;99.90;;;;;;4990763;28;20026;-39
2023/09/06 02:44:54;;;;;;;6.97;3.17;;;20.90;99.90;;;;;;4991195;28;20014;-40
2023/09/06 02:47:28;;;;;;;4.25;3.25;;;20.80;99.90;;;;;;4993599;28;20061;-40
2023/09/06 02:49:55;;;;;;;4.28;3.00;;;20.70;99.90;;;;;;4992896;28;20034;-38
2023/09/06 02:52:28;;;;;;;6.15;2.95;;;20.70;99.90;;;;;;4993661;28;20518;-37
2023/09/06 02:55:04;;;;;;;5.32;2.50;;;20.70;99.90;;;;;;4993688;28;20505;-37
2023/09/06 02:57:30;;;;;;;3.80;3.22;;;20.70;99.90;;;;;;4993479;28;20026;-37
2023/09/06 02:59:56;;;;;;;4.47;3.35;;;20.70;99.90;;;;;;4992415;28;20030;-37
2023/09/06 03:02:23;;;;;;;4.05;3.40;;;20.70;99.90;;;;;;4993484;28;20018;-37
2023/09/06 03:04:55;;;;;;;6.80;3.20;;;20.60;99.90;;;;;;4993427;28;20027;-37
2023/09/06 03:07:21;;;;;;;3.78;3.33;;;20.60;99.90;;;;;;4992501;28;20030;-39
2023/09/06 03:09:49;;;;;;;6.22;3.92;;;20.60;99.90;;;;;;4990993;28;20030;-39
2023/09/06 03:12:16;;;;;;;4.60;2.90;;;20.70;99.90;;;;;;4983420;28;20030;-38
2023/09/06 03:14:44;;;;;;;4.22;3.13;;;20.60;99.90;;;;;;4991903;28;20019;-38
2023/09/06 03:17:13;;;;;;;3.60;3.08;;;20.60;99.90;;;;;;4990584;28;20061;-40
2023/09/06 03:19:41;;;;;;;5.75;3.45;;;20.60;99.90;;;;;;4973982;28;20042;-41
2023/09/06 03:22:10;;;;;;;5.45;3.50;;;20.60;99.90;;;;;;4971396;28;20038;-40
2023/09/06 03:24:43;;;;;;;5.93;3.65;;;20.60;99.90;;;;;;4981869;28;20027;-37
2023/09/06 03:27:15;;;;;;;5.70;3.50;;;20.50;99.90;;;;;;4988461;28;20487;-37
2023/09/06 03:29:40;;;;;;;3.70;3.30;;;20.60;99.90;;;;;;4991541;28;20037;-41
2023/09/06 03:32:10;;;;;;;4.75;3.88;;;20.50;99.90;;;;;;4992509;28;20042;-38
2023/09/06 03:34:37;;;;;;;4.30;3.30;;;20.50;99.90;;;;;;4986767;28;20030;-38
2023/09/06 03:37:05;;;;;;;6.80;3.60;;;20.40;99.90;;;;;;4986624;28;20043;-38
2023/09/06 03:39:37;;;;;;;5.38;3.55;;;20.40;99.90;;;;;;4992593;28;20018;-39
2023/09/06 03:42:08;;;;;;;6.10;3.30;;;20.30;99.90;;;;;;4975307;28;20023;-40
2023/09/06 03:44:38;;;;;;;5.38;3.75;;;20.40;99.90;;;;;;4991201;28;20037;-38
2023/09/06 03:47:06;;;;;;;4.45;3.53;;;20.40;99.90;;;;;;4990627;28;20030;-39
2023/09/06 03:49:35;;;;;;;8.15;3.92;;;20.40;99.90;;;;;;4992359;28;20038;-38
2023/09/06 03:52:04;;;;;;;4.85;3.65;;;20.30;99.90;;;;;;4992170;28;20101;-38
2023/09/06 03:54:32;;;;;;;7.63;3.50;;;20.30;99.90;;;;;;4981897;28;20062;-39
2023/09/06 03:56:57;;;;;;;4.80;3.80;;;20.20;99.90;;;;;;4985454;28;20583;-39
2023/09/06 03:59:24;;;;;;;4.03;3.58;;;20.20;99.90;;;;;;4990510;28;20026;-37
2023/09/06 04:01:49;;;;;;;6.85;4.05;;;20.10;99.90;;;;;;4991350;28;20077;-38
2023/09/06 04:04:15;;;;;;;5.53;3.53;;;20.10;99.90;;;;;;4992937;28;20039;-39
2023/09/06 04:06:43;;;;;;;4.65;3.30;;;20.10;99.90;;;;;;4992871;28;20584;-39
2023/09/06 04:09:13;;;;;;;7.47;3.53;;;20.10;99.90;;;;;;4993366;28;20042;-40
2023/09/06 04:11:40;;;;;;;4.70;3.67;;;20.10;99.90;;;;;;4994953;28;20080;-37
2023/09/06 04:14:07;;;;;;;5.15;3.95;;;20.00;99.90;;;;;;4994551;28;20080;-39
2023/09/06 04:16:37;;;;;;;7.03;4.20;;;20.00;99.90;;;;;;4996164;28;20109;-38
2023/09/06 04:19:05;;;;;;;4.80;3.53;;;19.90;99.90;;;;;;4993956;28;20030;-38
2023/09/06 04:21:32;;;;;;;8.75;4.35;;;19.90;99.90;;;;;;4995322;28;20038;-40
2023/09/06 04:23:57;;;;;;;8.90;4.20;;;19.80;99.90;;;;;;4996416;28;20463;-38
2023/09/06 04:26:25;;;;;;;5.68;4.10;;;19.80;99.90;;;;;;4994466;28;20029;-37
2023/09/06 04:28:51;;;;;;;5.32;4.32;;;19.80;99.90;;;;;;4995355;28;20026;-40
2023/09/06 04:31:17;;;;;;;10.77;4.15;;;19.90;99.90;;;;;;4996069;28;20026;-39
2023/09/06 04:33:44;;;;;;;8.35;4.22;;;19.90;99.90;;;;;;4995883;28;20026;-39
2023/09/06 04:36:10;;;;;;;8.43;4.20;;;19.90;99.90;;;;;;4994829;28;20132;-40
2023/09/06 04:38:35;;;;;;;6.47;4.13;;;19.80;99.90;;;;;;4994253;28;20097;-39
2023/09/06 04:41:02;;;;;;;7.32;4.82;;;19.80;99.90;;;;;;4995931;28;20030;-38
2023/09/06 04:43:28;;;;;;;6.15;4.53;;;19.80;99.90;;;;;;4993911;28;20033;-38
2023/09/06 04:45:54;;;;;;;7.03;4.55;;;19.80;99.90;;;;;;4977519;28;20034;-39
2023/09/06 04:48:23;;;;;;;9.85;3.90;;;19.80;99.90;;;;;;4995310;28;20027;-38
2023/09/06 04:50:49;;;;;;;8.05;4.63;;;19.80;99.90;;;;;;4994735;28;20034;-38
2023/09/06 04:53:18;;;;;;;9.73;4.43;;;19.80;99.90;;;;;;4994658;28;20100;-38
2023/09/06 04:55:44;;;;;;;4.25;3.53;;;19.80;99.90;;;;;;4993998;28;20372;-41
2023/09/06 04:58:11;;;;;;;7.22;4.30;;;19.80;99.90;;;;;;4995524;28;20026;-37
2023/09/06 05:00:41;;;;;;;7.50;4.40;;;19.70;99.90;;;;;;4994439;28;20030;-37
2023/09/06 05:03:13;;;;;;;6.95;4.35;;;19.70;99.90;;;;;;4989688;28;20495;-37
2023/09/06 05:05:41;;;;;;;7.80;4.88;;;19.70;99.90;;;;;;4993463;28;20395;-38
2023/09/06 05:08:07;;;;;;;8.93;4.93;;;19.70;99.90;;;;;;4990476;28;20034;-38
2023/09/06 05:10:35;;;;;;;7.22;5.00;;;19.70;99.90;;;;;;4980908;28;20035;-38
2023/09/06 05:13:01;;;;;;;7.25;4.28;;;19.60;99.90;;;;;;4991628;28;20122;-41
2023/09/06 05:15:27;;;;;;;9.40;4.30;;;19.60;99.90;;;;;;4992568;28;20117;-40
2023/09/06 05:17:53;;;;;;;5.68;4.45;;;19.50;99.90;;;;;;4995191;28;20023;-40
2023/09/06 05:20:32;;;;;;;5.18;3.70;;;19.60;99.90;;;;;;4993865;28;20035;-38
2023/09/06 05:23:03;;;;;;;6.30;4.28;;;19.50;99.90;;;;;;4988117;28;20030;-39
2023/09/06 05:25:30;;;;;;;7.80;4.45;;;19.60;99.90;;;;;;4992050;28;20062;-39
2023/09/06 05:28:01;;;;;;;5.40;3.75;;;19.60;99.90;;;;;;4994431;28;20027;-39
2023/09/06 05:30:27;;;;;;;5.80;4.13;;;19.60;99.90;;;;;;4993938;28;20035;-39
2023/09/06 05:32:56;;;;;;;7.97;4.75;;;19.60;99.90;;;;;;4994953;28;20031;-38
2023/09/06 05:35:23;;;;;;;7.10;3.40;;;19.70;99.90;;;;;;4993847;28;20038;-42
2023/09/06 05:37:49;;;;;;;5.50;4.40;;;19.70;99.90;;;;;;4994676;28;20038;-39
2023/09/06 05:40:15;;;;;;;6.00;4.30;;;19.80;99.90;;;;;;4994986;28;20041;-42
2023/09/06 05:42:41;;;;;;;8.65;4.20;;;19.80;99.90;;;;;;4994179;28;20033;-40
2023/09/06 05:45:11;;;;;;;7.60;5.07;;;19.80;99.90;;;;;;4992644;28;20062;-38
2023/09/06 05:47:38;;;;;;;7.43;4.65;;;19.90;99.90;;;;;;4994849;28;20105;-39
2023/09/06 05:50:05;;;;;;;4.80;4.27;;;19.90;99.90;;;;;;4994025;28;20026;-41
2023/09/06 05:52:30;;;;;;;10.32;5.00;;;19.90;99.90;;;;;;4994488;28;20055;-38
2023/09/06 05:54:56;;;;;;;8.48;4.45;;;19.90;99.90;;;;;;4993526;28;20034;-38
2023/09/06 05:57:22;;;;;;;10.68;4.13;;;20.00;99.90;;;;;;4994330;28;20030;-40
2023/09/06 05:59:47;;;;;;;7.22;4.55;;;20.00;99.90;;;;;;4993605;28;20042;-39
2023/09/06 06:02:14;;;;;;;9.82;5.15;;;20.00;99.90;;;;;;4976870;28;20056;-39
2023/09/06 06:04:59;;;;;;;7.75;4.85;;;20.00;99.90;;;;;;4992133;28;20118;-38
2023/09/06 06:07:24;;;;;;;6.55;4.78;;;20.10;99.90;;;;;;4994457;28;20117;-38
2023/09/06 06:09:50;;;;;;;7.35;4.60;;;20.10;99.90;;;;;;4994158;28;20104;-38
2023/09/06 06:12:22;;;;;;;10.27;4.28;;;20.20;99.90;;;;;;4993937;28;20034;-37
2023/09/06 06:14:51;;;;;;;6.40;5.43;;;20.20;99.90;;;;;;4993759;28;20029;-38
2023/09/06 06:17:18;;;;;;;7.70;5.65;;;20.30;99.90;;;;;;4994004;28;20050;-38
2023/09/06 06:19:48;;;;;;;6.15;4.75;;;20.40;99.90;;;;;;4993685;28;20041;-40
2023/09/06 06:22:14;;;;;;;7.72;5.20;;;20.40;99.90;;;;;;4989193;28;20027;-41
2023/09/06 06:24:43;;;;;;;7.25;4.95;;;20.40;99.90;;;;;;4974496;28;20388;-37
2023/09/06 06:27:09;;;;;;;6.47;5.10;;;20.40;99.90;;;;;;4974492;28;20030;-38
2023/09/06 06:29:35;;;;;;;9.05;5.63;;;20.40;99.90;;;;;;4991872;28;20033;-38
2023/09/06 06:32:00;;;;;;;7.07;4.93;;;20.50;99.90;;;;;;4990447;28;20038;-38
2023/09/06 06:34:27;;;;;;;4.38;3.35;;;20.50;99.90;;;;;;4992638;28;20046;-41
2023/09/06 06:36:53;;;;;;;6.55;4.88;;;20.60;99.90;;;;;;4992484;28;20081;-37
2023/09/06 06:39:18;;;;;;;6.63;4.70;;;20.60;99.90;;;;;;4993595;28;20361;-36
2023/09/06 06:41:44;;;;;;;9.52;5.78;;;20.70;99.90;;;;;;4992724;28;20026;-39
2023/09/06 06:44:10;;;;;;;5.88;5.28;;;20.70;99.90;;;;;;4992977;28;20077;-37
2023/09/06 06:46:38;;;;;;;8.07;5.50;;;20.80;99.90;;;;;;4978143;28;20037;-38
2023/09/06 06:49:07;;;;;;;9.70;5.57;;;20.90;99.90;;;;;;4982017;28;20432;-37
2023/09/06 06:51:38;;;;;;;11.23;5.15;;;21.00;99.90;;;;;;4992183;28;20019;-37
2023/09/06 06:54:06;;;;;;;8.82;5.22;;;21.00;99.90;;;;;;4993094;28;20434;-40
2023/09/06 06:56:31;;;;;;;9.95;5.53;;;21.10;99.90;;;;;;4993342;28;20455;-38
2023/09/06 06:58:57;;;;;;;13.80;5.60;;;21.20;99.90;;;;;;4993391;28;20034;-38
2023/09/06 07:01:24;;;;;;;9.13;5.80;;;21.30;99.90;;;;;;4993190;28;20033;-37
2023/09/06 07:03:50;;;;;;;6.53;4.70;;;21.40;99.90;;;;;;4993420;28;20061;-37
2023/09/06 07:06:15;;;;;;;7.03;5.00;;;21.40;99.90;;;;;;4993314;28;20491;-38
2023/09/06 07:08:41;;;;;;;11.45;6.30;;;21.50;99.90;;;;;;4993195;28;20022;-39
2023/09/06 07:11:07;;;;;;;12.68;6.40;;;21.60;99.90;;;;;;4993201;28;20026;-38
2023/09/06 07:13:34;;;;;;;17.33;6.97;;;21.70;99.90;;;;;;4975930;28;20022;-39
2023/09/06 07:16:00;;;;;;;8.68;5.28;;;21.80;99.90;;;;;;4993516;28;20090;-37
2023/09/06 07:18:26;;;;;;;7.32;5.22;;;21.90;99.90;;;;;;4992192;28;20030;-37
2023/09/06 07:20:51;;;;;;;7.78;5.28;;;22.00;99.90;;;;;;4992031;28;20422;-38
2023/09/06 07:23:17;;;;;;;6.97;4.93;;;22.10;99.90;;;;;;4993070;28;20109;-38
2023/09/06 07:25:49;;;;;;;13.85;5.60;;;22.30;99.90;;;;;;4992690;28;20069;-38
2023/09/06 07:28:14;;;;;;;12.50;5.68;;;22.40;99.90;;;;;;4992320;28;20042;-36
2023/09/06 07:30:42;;;;;;;9.70;5.15;;;22.50;99.90;;;;;;4993109;28;20034;-38
2023/09/06 07:33:08;;;;;;;6.22;5.35;;;22.70;99.90;;;;;;4992287;28;20486;-40
2023/09/06 07:35:34;;;;;;;9.20;5.60;;;22.90;99.90;;;;;;4991311;28;20384;-37
2023/09/06 07:38:00;;;;;;;8.70;6.15;;;22.90;99.90;;;;;;4992478;28;20030;-37
2023/09/06 07:40:26;;;;;;;8.02;5.13;;;22.90;99.90;;;;;;4991259;28;20034;-37
2023/09/06 07:42:52;;;;;;;9.55;5.50;;;23.00;99.90;;;;;;4991176;28;20504;-46
2023/09/06 07:45:18;;;;;;;8.40;5.43;;;23.20;99.90;;;;;;4993504;28;20054;-37
2023/09/06 07:47:44;;;;;;;7.32;5.60;;;23.20;99.90;;;;;;4996865;28;20034;-37
2023/09/06 07:50:10;;;;;;;6.88;4.90;;;23.30;99.90;;;;;;4996054;28;20477;-40
2023/09/06 07:52:39;;;;;;;10.73;5.78;;;23.30;99.90;;;;;;4991870;28;20026;-42
2023/09/06 07:55:05;;;;;;;7.70;5.47;;;23.50;99.90;;;;;;4995806;28;20054;-36
2023/09/06 07:57:31;;;;;;;6.15;5.22;;;23.60;99.90;;;;;;4995201;28;20022;-37
2023/09/06 07:59:57;;;;;;;11.65;6.10;;;23.60;99.90;;;;;;4996627;28;20030;-40
2023/09/06 08:02:22;;;;;;;15.48;5.45;;;23.70;99.90;;;;;;4994971;28;20077;-39
2023/09/06 08:04:50;;;;;;;11.90;5.40;;;23.70;99.90;;;;;;4994825;28;20479;-42
2023/09/06 08:07:16;;;;;;;8.48;5.57;;;23.90;99.90;;;;;;4979081;28;20402;-37
2023/09/06 08:09:42;;;;;;;6.68;5.07;;;24.00;99.90;;;;;;4995305;28;20487;-37
2023/09/06 08:12:08;;;;;;;6.03;4.40;;;24.10;99.90;;;;;;4993218;28;20076;-38
2023/09/06 08:14:35;;;;;;;6.53;4.80;;;24.20;99.90;;;;;;4995445;28;20530;-38
2023/09/06 08:17:01;;;;;;;7.90;5.65;;;24.30;99.90;;;;;;4994615;28;20689;-39
2023/09/06 08:19:26;;;;;;;8.38;4.63;;;24.40;99.90;;;;;;4994252;28;20081;-39
2023/09/06 08:21:52;;;;;;;6.40;5.00;;;24.40;99.90;;;;;;4993818;28;20022;-37
2023/09/06 08:24:18;;;;;;;7.05;5.07;;;24.60;99.90;;;;;;4992772;28;20070;-37
2023/09/06 08:26:48;;;;;;;5.18;4.68;;;24.80;99.90;;;;;;4994879;28;20521;-38
2023/09/06 08:29:14;;;;;;;11.07;4.10;;;24.90;99.90;;;;;;4992554;28;20499;-38
2023/09/06 08:31:39;;;;;;;9.38;4.63;;;24.90;99.90;;;;;;4994681;28;20018;-37
2023/09/06 08:34:07;;;;;;;6.45;4.70;;;25.10;99.90;;;;;;4991761;28;20150;-37
2023/09/06 08:36:32;;;;;;;6.55;4.05;;;25.20;99.90;;;;;;4992717;28;20128;-39
2023/09/06 08:38:58;;;;;;;6.22;4.32;;;25.30;99.90;;;;;;4995981;28;20475;-40
2023/09/06 08:41:26;;;;;;;7.63;3.67;;;25.40;99.90;;;;;;4994124;28;20525;-39
2023/09/06 08:43:52;;;;;;;5.32;3.75;;;25.50;99.90;;;;;;4994003;28;20422;-38
2023/09/06 08:46:29;;;;;;;5.72;4.18;;;25.70;99.90;;;;;;4991990;28;20083;-37
2023/09/06 08:48:55;;;;;;;4.43;3.40;;;25.80;99.90;;;;;;4992042;28;20069;-40
2023/09/06 08:51:22;;;;;;;6.07;3.33;;;25.90;99.90;;;;;;4993635;28;20101;-38
2023/09/06 08:53:48;;;;;;;6.68;4.43;;;26.00;99.90;;;;;;4993933;28;20026;-39
2023/09/06 08:56:17;;;;;;;12.05;3.78;;;26.00;99.90;;;;;;4995349;28;20042;-37
2023/09/06 08:58:44;;;;;;;5.43;3.55;;;26.20;99.90;;;;;;4995473;28;20038;-38
2023/09/06 09:01:09;;;;;;;6.45;3.63;;;26.20;99.90;;;;;;4994649;28;20045;-38
2023/09/06 09:03:35;;;;;;;8.18;4.13;;;26.30;99.90;;;;;;4992687;28;20097;-38
2023/09/06 09:06:09;;;;;;;3.75;3.28;;;26.40;99.90;;;;;;4981974;28;20499;-38
2023/09/06 09:08:35;;;;;;;7.03;3.97;;;26.60;99.90;;;;;;4993775;28;20049;-37
2023/09/06 09:11:19;;;;;;;4.22;3.17;;;26.70;99.90;;;;;;4994766;28;20121;-38
2023/09/06 09:13:45;;;;;;;4.63;3.50;;;26.80;99.90;;;;;;4995456;28;20109;-38
2023/09/06 09:16:17;;;;;;;5.22;3.58;;;26.90;99.90;;;;;;4993032;28;20037;-37
2023/09/06 09:18:44;;;;;;;4.07;3.40;;;27.00;99.90;;;;;;4993712;28;20126;-40
2023/09/06 09:21:11;;;;;;;9.93;3.67;;;27.20;99.90;;;;;;4994322;28;20045;-40
2023/09/06 09:23:55;;;;;;;10.40;3.75;;;27.20;99.90;;;;;;4994517;28;20431;-38
2023/09/06 09:26:22;;;;;;;4.10;3.30;;;27.20;99.90;;;;;;4993888;28;20117;-38
2023/09/06 09:28:48;;;;;;;3.90;3.28;;;27.30;99.90;;;;;;4983260;28;20049;-39
2023/09/06 09:31:15;;;;;;;4.90;3.60;;;27.40;99.90;;;;;;4975666;28;20035;-52
2023/09/06 09:33:44;;;;;;;10.45;3.40;;;27.50;99.90;;;;;;4975518;28;20027;-52
2023/09/06 09:36:13;;;;;;;5.40;3.05;;;27.60;99.90;;;;;;4975217;28;20051;-50
2023/09/06 09:38:46;;;;;;;3.45;3.00;;;27.70;99.90;;;;;;4987666;28;20065;-52
2023/09/06 09:41:14;;;;;;;4.88;3.85;;;27.70;99.90;;;;;;4994912;28;20075;-53
2023/09/06 09:43:40;;;;;;;8.77;3.42;;;27.80;99.90;;;;;;4993459;28;20026;-51
2023/09/06 09:46:06;;;;;;;5.53;3.10;;;27.90;99.90;;;;;;4982414;28;20414;-52
2023/09/06 09:48:32;;;;;;;3.07;2.73;;;27.90;99.90;;;;;;4987560;28;20026;-52
2023/09/06 09:51:01;;;;;;;3.67;2.53;;;28.00;99.90;;;;;;4994473;28;20037;-51
2023/09/06 09:53:30;;;;;;;2.67;2.47;;;28.10;99.90;;;;;;4994496;28;20415;-51
2023/09/06 09:55:57;;;;;;;4.38;3.17;;;28.10;99.90;;;;;;4994437;28;20122;-49
2023/09/06 09:58:25;;;;;;;3.50;2.80;;;28.20;99.90;;;;;;4993245;28;20438;-49
2023/09/06 10:00:51;;;;;;;;;;;28.20;99.90;;;;;;4994715;28;20030;-53
2023/09/06 10:03:18;;;;;;;2.53;2.20;;;28.30;99.90;;;;;;4993876;28;19910;-53
2023/09/06 10:05:45;;;;;;;3.28;2.40;;;28.40;99.90;;;;;;4994261;28;20034;-52
2023/09/06 10:08:12;;;;;;;3.20;2.08;;;28.60;99.90;;;;;;4974249;28;20034;-51
2023/09/06 10:10:39;;;;;;;5.55;2.58;;;28.70;99.90;;;;;;4993731;28;20084;-52
2023/09/06 10:13:07;;;;;;;4.53;2.38;;;28.80;99.90;;;;;;4992358;28;20528;-52
2023/09/06 10:15:34;;;;;;;3.25;2.22;;;28.90;99.90;;;;;;4991997;28;20033;-51
2023/09/06 10:18:00;;;;;;;;;;;28.90;99.90;;;;;;4992512;28;20026;-53
2023/09/06 10:20:29;;;;;;;5.27;2.00;;;29.00;99.90;;;;;;4993154;28;20351;-51
2023/09/06 10:22:57;;;;;;;3.95;2.47;;;29.10;99.90;;;;;;4993792;28;20030;-52
2023/09/06 10:25:25;;;;;;;2.83;1.80;;;29.20;99.90;;;;;;4993946;28;20046;-52
2023/09/06 10:27:55;;;;;;;3.60;1.98;;;29.50;99.90;;;;;;4976488;28;20479;-52
2023/09/06 10:30:45;;;;;;;2.08;1.90;;;29.60;99.90;;;;;;4993791;28;20040;-50
2023/09/06 10:33:31;;;;;;;2.60;1.67;;;29.80;99.90;;;;;;4993755;28;20026;-51
2023/09/06 10:36:04;;;;;;;2.83;2.10;;;29.90;99.90;;;;;;4992973;28;20084;-51
2023/09/06 10:38:30;;;;;;;3.53;2.47;;;30.00;99.90;;;;;;4993477;28;20037;-49
2023/09/06 10:40:56;;;;;;;3.13;2.35;;;29.90;99.90;;;;;;4993854;28;20030;-50
2023/09/06 10:43:29;;;;;;;2.15;1.95;;;29.80;99.90;;;;;;4991371;28;20491;-52
2023/09/06 10:46:07;;;;;;;2.90;2.60;;;29.80;99.90;;;;;;4989074;28;20037;-51
2023/09/06 10:48:32;;;;;;;3.75;2.60;;;29.90;99.90;;;;;;4992693;28;20606;-52
2023/09/06 10:51:08;;;;;;;4.47;2.40;;;30.00;99.90;;;;;;4993679;28;20105;-53
2023/09/06 10:53:35;;;;;;;4.47;1.98;;;29.90;99.90;;;;;;4993321;28;20030;-51
2023/09/06 10:56:03;;;;;;;8.70;2.22;;;29.90;99.90;;;;;;4994142;28;20088;-45
2023/09/06 10:58:32;;;;;;;2.42;2.22;;;30.00;99.90;;;;;;4980065;28;20396;-51
2023/09/06 11:01:18;;;;;;;5.68;2.40;;;30.10;99.90;;;;;;4991211;28;20112;-52
2023/09/06 11:03:50;;;;;;;6.15;1.73;;;30.20;99.90;;;;;;4983232;28;20027;-50
2023/09/06 11:06:16;;;;;;;3.58;1.80;;;30.30;99.90;;;;;;4993653;28;20031;-51
2023/09/06 11:08:42;;;;;;;2.63;2.10;;;30.30;99.90;;;;;;4993363;28;20030;-52
2023/09/06 11:11:09;;;;;;;2.42;2.20;;;30.30;99.90;;;;;;4993025;28;20038;-52
2023/09/06 11:13:56;;;;;;;3.40;1.95;;;30.30;99.90;;;;;;4993292;28;20395;-53
2023/09/06 11:16:21;;;;;;;2.40;1.67;;;30.30;99.90;;;;;;4993190;28;20125;-50
2023/09/06 11:18:49;;;;;;;5.88;1.80;;;30.40;99.90;;;;;;4993400;28;20035;-53
2023/09/06 11:21:22;;;;;;;3.45;2.08;;;30.50;99.90;;;;;;4986031;28;20545;-50
2023/09/06 11:23:53;;;;;;;3.30;2.15;;;30.60;99.90;;;;;;4997618;28;20031;-51
2023/09/06 11:26:19;;;;;;;4.90;2.40;;;30.60;99.90;;;;;;4997398;28;20475;-52
2023/09/06 11:28:47;;;;;;;3.28;1.92;;;30.70;99.90;;;;;;4986246;28;20541;-48
2023/09/06 11:31:25;;;;;;;16.17;2.72;;;30.70;99.90;;;;;;4978076;28;20035;-50
2023/09/06 11:34:00;;;;;;;3.92;1.73;;;30.70;99.90;;;;;;4977956;28;20424;-49
2023/09/06 11:36:36;;;;;;;4.43;1.45;;;30.60;99.90;;;;;;4982360;28;20038;-52
2023/09/06 11:39:21;;;;;;;1.73;1.42;;;30.70;99.90;;;;;;4985649;28;20033;-50
2023/09/06 11:41:48;;;;;;;2.03;1.88;;;30.70;99.90;;;;;;4996332;28;20026;-51
2023/09/06 11:44:17;;;;;;;3.17;2.22;;;30.60;99.90;;;;;;4996070;28;20027;-50
2023/09/06 11:46:43;;;;;;;1.30;1.20;;;30.60;99.90;;;;;;4994317;28;20026;-45
2023/09/06 11:49:10;;;;;;;1.70;1.60;;;30.70;99.90;;;;;;4996717;28;20122;-49
2023/09/06 11:51:37;;;;;;;2.97;1.33;;;30.80;99.80;;;;;;4997020;28;20105;-51
2023/09/06 11:54:09;;;;;;;1.63;1.48;;;30.80;99.90;;;;;;4989397;28;20384;-49
2023/09/06 11:56:36;;;;;;;1.42;1.23;;;30.80;99.90;;;;;;4987541;28;20022;-47
2023/09/06 11:59:06;;;;;;;;;;;30.90;99.80;;;;;;4994420;28;20018;-47
2023/09/06 12:01:40;;;;;;;1.27;1.17;;;30.90;99.90;;;;;;4984874;28;19910;-52
2023/09/06 12:04:16;;;;;;;2.95;1.50;;;31.00;99.90;;;;;;4968374;28;20034;-51
2023/09/06 12:06:41;;;;;;;1.70;1.27;;;31.20;99.90;;;;;;4984252;28;20376;-50
2023/09/06 12:09:12;;;;;;;1.63;1.52;;;31.30;99.90;;;;;;4994323;28;20038;-48
2023/09/06 12:11:40;;;;;;;5.43;2.10;;;31.40;99.50;;;;;;4986920;28;20387;-52
2023/09/06 12:14:10;;;;;;;3.28;1.30;;;31.40;99.70;;;;;;4980744;28;20026;-52
2023/09/06 12:16:36;;;;;;;8.18;1.73;;;31.50;99.30;;;;;;4985123;28;20032;-51
2023/09/06 12:19:02;;;;;;;;;;;31.60;99.10;;;;;;4983384;28;20435;-52
2023/09/06 12:21:28;;;;;;;2.05;1.35;;;31.50;99.20;;;;;;4987112;28;20289;-49
2023/09/06 12:23:54;;;;;;;1.93;1.20;;;31.60;99.30;;;;;;4994815;28;20129;-52
2023/09/06 12:26:20;;;;;;;2.70;1.95;;;31.60;99.40;;;;;;4988908;28;20487;-52
2023/09/06 12:28:47;;;;;;;4.07;1.73;;;31.70;99.60;;;;;;4987819;28;20084;-51
2023/09/06 12:31:16;;;;;;;5.03;1.33;;;31.80;99.40;;;;;;4994913;28;20045;-50
2023/09/06 12:33:45;;;;;;;2.95;1.65;;;31.90;98.90;;;;;;4995080;28;20026;-51
2023/09/06 12:36:12;;;;;;;4.95;1.83;;;31.90;98.90;;;;;;4994138;28;20042;-52
2023/09/06 12:38:38;;;;;;;2.03;1.33;;;31.80;98.80;;;;;;4995706;28;20505;-49
2023/09/06 12:41:06;;;;;;;1.85;1.60;;;31.80;98.70;;;;;;4995738;28;20053;-49
2023/09/06 12:43:36;;;;;;;5.38;1.95;;;31.80;99.10;;;;;;4994699;28;20030;-51
2023/09/06 12:46:08;;;;;;;1.58;1.45;;;31.80;99.00;;;;;;4973022;28;20027;-51
2023/09/06 12:48:34;;;;;;;4.35;2.25;;;31.90;99.50;;;;;;4994570;28;20038;-44
2023/09/06 12:51:00;;;;;;;2.08;1.88;;;32.00;99.20;;;;;;4994513;28;20104;-51
2023/09/06 12:53:26;;;;;;;2.50;1.67;;;32.20;99.20;;;;;;4980806;28;20106;-44